Time;durP1;ratioP1;P1;durP2;ratioP2;P2;SDS_P1;SDS_P2;PMS_P1;PMS_P2;Temp;Humidity;BMP_temperature;BMP_pressure;BME280_temperature;BME280_humidity;BME280_pressure;Samples;Min_cycle;Max_cycle;Signal;HPM_P1;HPM_P2
2023/12/06 00:01:54;;;;;;;37.50;22.57;;;1.50;99.90;;;;;;4899710;29;20183;-92
2023/12/06 00:04:20;;;;;;;37.03;20.77;;;1.50;99.90;;;;;;4883240;29;20647;-93
2023/12/06 00:06:48;;;;;;;32.67;21.47;;;1.50;99.90;;;;;;4878818;29;20274;-92
2023/12/06 00:09:13;;;;;;;35.47;22.40;;;1.50;99.90;;;;;;4872193;29;20190;-94
2023/12/06 00:11:39;;;;;;;39.17;22.20;;;1.50;99.90;;;;;;4866724;29;20195;-95
2023/12/06 00:14:05;;;;;;;32.63;22.13;;;1.50;99.90;;;;;;4882762;29;20194;-93
2023/12/06 00:16:34;;;;;;;37.57;22.67;;;1.50;99.90;;;;;;4880461;29;20630;-94
2023/12/06 00:19:00;;;;;;;31.50;20.93;;;1.50;99.90;;;;;;4893925;29;20191;-95
2023/12/06 00:21:26;;;;;;;37.47;21.70;;;1.50;99.90;;;;;;4882731;29;20603;-95
2023/12/06 00:23:52;;;;;;;31.90;20.93;;;1.50;99.90;;;;;;4899527;29;20189;-95
2023/12/06 00:26:17;;;;;;;32.40;21.70;;;1.50;99.90;;;;;;4899523;29;20710;-94
2023/12/06 00:28:47;;;;;;;32.87;20.70;;;1.50;99.90;;;;;;4867484;29;20246;-95
2023/12/06 00:31:14;;;;;;;34.20;22.07;;;1.50;99.90;;;;;;4891718;29;20195;-94
2023/12/06 00:33:40;;;;;;;32.17;20.63;;;1.50;99.90;;;;;;4882682;29;20293;-95
2023/12/06 00:36:06;;;;;;;33.20;21.00;;;1.50;99.90;;;;;;4882446;29;20278;-93
2023/12/06 00:38:32;;;;;;;33.87;21.67;;;1.50;99.90;;;;;;4882348;29;20698;-94
2023/12/06 00:41:00;;;;;;;35.27;21.87;;;1.50;99.90;;;;;;4898901;29;20690;-94
2023/12/06 00:43:26;;;;;;;31.40;20.87;;;1.50;99.90;;;;;;4882534;29;20195;-94
2023/12/06 00:45:51;;;;;;;34.70;22.50;;;1.50;99.90;;;;;;4882575;29;20613;-94
2023/12/06 00:48:17;;;;;;;34.03;21.60;;;1.50;99.90;;;;;;4886111;29;20216;-93
2023/12/06 00:50:43;;;;;;;32.13;20.37;;;1.50;99.90;;;;;;4864809;29;20620;-95
2023/12/06 00:53:09;;;;;;;32.40;19.73;;;1.50;99.90;;;;;;4897083;29;20195;-94
2023/12/06 00:55:34;;;;;;;30.67;20.50;;;1.50;99.90;;;;;;4902628;29;20183;-95
2023/12/06 00:58:01;;;;;;;31.87;21.03;;;1.50;99.90;;;;;;4902723;29;20183;-95
2023/12/06 01:00:27;;;;;;;32.50;21.07;;;1.50;99.90;;;;;;4886143;29;20201;-94
2023/12/06 01:02:53;;;;;;;30.83;19.80;;;1.50;99.90;;;;;;4878329;29;20278;-92
2023/12/06 01:05:19;;;;;;;36.10;21.40;;;1.50;99.90;;;;;;4891381;29;20635;-91
2023/12/06 01:07:46;;;;;;;31.03;20.53;;;1.50;99.90;;;;;;4919609;29;20816;-94
2023/12/06 01:10:11;;;;;;;29.40;19.90;;;1.50;99.90;;;;;;4920276;29;20209;-93
2023/12/06 01:12:37;;;;;;;32.37;20.93;;;1.50;99.90;;;;;;4920211;29;20539;-93
2023/12/06 01:15:04;;;;;;;31.50;21.23;;;1.50;99.90;;;;;;4920496;29;20234;-91
2023/12/06 01:17:37;;;;;;;33.83;21.63;;;1.40;99.90;;;;;;4919782;29;20213;-93
2023/12/06 01:20:05;;;;;;;31.50;20.63;;;1.50;99.90;;;;;;4919755;29;20187;-90
2023/12/06 01:22:31;;;;;;;31.33;20.70;;;1.50;99.90;;;;;;4920637;29;20277;-93
2023/12/06 01:24:57;;;;;;;30.93;20.03;;;1.50;99.90;;;;;;4916008;29;20265;-93
2023/12/06 01:27:29;;;;;;;29.20;20.70;;;1.50;99.90;;;;;;4917192;29;20309;-94
2023/12/06 01:29:54;;;;;;;31.77;20.93;;;1.50;99.90;;;;;;4914450;29;20186;-94
2023/12/06 01:32:20;;;;;;;31.47;20.40;;;1.50;99.90;;;;;;4916425;29;20471;-94
2023/12/06 01:34:46;;;;;;;33.63;20.53;;;1.50;99.90;;;;;;4919653;29;20229;-91
2023/12/06 01:37:13;;;;;;;29.43;19.13;;;1.50;99.90;;;;;;4919532;29;20626;-91
2023/12/06 01:39:39;;;;;;;30.13;19.83;;;1.50;99.90;;;;;;4919621;29;20186;-94
2023/12/06 01:42:05;;;;;;;29.80;19.10;;;1.50;99.90;;;;;;4919295;29;20202;-95
2023/12/06 01:44:31;;;;;;;28.63;20.50;;;1.50;99.90;;;;;;4919186;29;20190;-93
2023/12/06 01:46:56;;;;;;;32.30;19.00;;;1.50;99.90;;;;;;4919089;29;20218;-94
2023/12/06 01:49:23;;;;;;;31.63;20.00;;;1.50;99.90;;;;;;4911534;29;20219;-94
2023/12/06 01:51:48;;;;;;;29.10;19.93;;;1.50;99.90;;;;;;4919431;29;20191;-92
2023/12/06 01:54:15;;;;;;;32.33;19.53;;;1.60;99.90;;;;;;4919326;29;20274;-95
2023/12/06 01:56:42;;;;;;;29.97;19.37;;;1.50;99.90;;;;;;4919742;29;20190;-94
2023/12/06 01:59:11;;;;;;;32.40;20.63;;;1.50;99.90;;;;;;4912470;29;20199;-94
2023/12/06 02:01:37;;;;;;;30.17;19.53;;;1.50;99.90;;;;;;4910711;29;20641;-91
2023/12/06 02:04:04;;;;;;;31.53;19.97;;;1.60;99.90;;;;;;4919178;29;20285;-91
2023/12/06 02:06:30;;;;;;;34.27;20.07;;;1.50;99.90;;;;;;4918991;29;20249;-93
2023/12/06 02:08:59;;;;;;;31.03;19.70;;;1.60;99.90;;;;;;4911444;29;20606;-93
2023/12/06 02:11:25;;;;;;;28.27;19.27;;;1.50;99.90;;;;;;4920163;29;20292;-95
2023/12/06 02:13:50;;;;;;;33.33;20.40;;;1.50;99.90;;;;;;4919108;29;20216;-92
2023/12/06 02:16:16;;;;;;;33.47;20.57;;;1.50;99.90;;;;;;4918749;29;20241;-94
2023/12/06 02:18:45;;;;;;;30.27;20.40;;;1.50;99.90;;;;;;4918430;29;20309;-95
2023/12/06 02:21:12;;;;;;;29.57;20.30;;;1.50;99.90;;;;;;4913331;29;20191;-95
2023/12/06 02:23:40;;;;;;;32.63;20.50;;;1.50;99.90;;;;;;4916502;29;20734;-94
2023/12/06 02:26:05;;;;;;;31.33;18.70;;;1.50;99.90;;;;;;4918842;29;20201;-95
2023/12/06 02:28:33;;;;;;;33.60;20.10;;;1.50;99.90;;;;;;4916106;29;20194;-94
2023/12/06 02:30:59;;;;;;;33.50;20.83;;;1.50;99.90;;;;;;4912889;29;20645;-95
2023/12/06 02:33:27;;;;;;;30.23;19.37;;;1.50;99.90;;;;;;4918105;29;20194;-95
2023/12/06 02:35:57;;;;;;;30.83;20.47;;;1.50;99.90;;;;;;4918552;29;20194;-91
2023/12/06 02:38:24;;;;;;;30.37;19.63;;;1.50;99.90;;;;;;4917723;29;20194;-93
2023/12/06 02:40:52;;;;;;;29.13;19.90;;;1.50;99.90;;;;;;4907494;29;20191;-94
2023/12/06 02:43:18;;;;;;;31.93;20.30;;;1.50;99.90;;;;;;4915482;29;20190;-95
2023/12/06 02:45:44;;;;;;;31.20;20.23;;;1.50;99.90;;;;;;4918267;29;20191;-94
2023/12/06 02:48:10;;;;;;;32.57;20.23;;;1.50;99.90;;;;;;4918195;29;20308;-94
2023/12/06 02:50:36;;;;;;;33.80;19.63;;;1.50;99.90;;;;;;4910764;29;20281;-95
2023/12/06 02:53:02;;;;;;;29.73;20.17;;;1.50;99.90;;;;;;4918021;29;20604;-95
2023/12/06 02:55:28;;;;;;;29.43;18.97;;;1.50;99.90;;;;;;4916720;29;20219;-95
2023/12/06 02:57:54;;;;;;;28.67;19.40;;;1.60;99.90;;;;;;4911654;29;20633;-94
2023/12/06 03:00:20;;;;;;;29.80;19.30;;;1.50;99.90;;;;;;4917856;29;20194;-91
2023/12/06 03:02:46;;;;;;;30.37;18.83;;;1.60;99.90;;;;;;4917532;29;20190;-95
2023/12/06 03:05:12;;;;;;;29.13;19.73;;;1.50;99.90;;;;;;4917954;29;20242;-93
2023/12/06 03:07:41;;;;;;;31.37;20.93;;;1.50;99.90;;;;;;4911268;29;20325;-91
2023/12/06 03:10:07;;;;;;;27.77;19.67;;;1.50;99.90;;;;;;4918072;29;20190;-93
2023/12/06 03:12:33;;;;;;;30.87;18.70;;;1.50;99.90;;;;;;4917190;29;20200;-91
2023/12/06 03:14:58;;;;;;;30.47;19.37;;;1.50;99.90;;;;;;4917946;29;20191;-93
2023/12/06 03:17:24;;;;;;;28.67;18.67;;;1.50;99.90;;;;;;4917507;29;20574;-89
2023/12/06 03:19:51;;;;;;;29.23;19.70;;;1.50;99.90;;;;;;4917799;29;20241;-94
2023/12/06 03:22:17;;;;;;;27.40;18.57;;;1.50;99.90;;;;;;4910124;29;20626;-91
2023/12/06 03:24:42;;;;;;;30.60;18.37;;;1.50;99.90;;;;;;4917393;29;20193;-92
2023/12/06 03:27:08;;;;;;;27.93;19.10;;;1.50;99.90;;;;;;4917420;29;20214;-92
2023/12/06 03:29:35;;;;;;;33.00;20.27;;;1.50;99.90;;;;;;4918456;29;20182;-90
2023/12/06 03:32:01;;;;;;;28.73;19.03;;;1.50;99.90;;;;;;4918413;29;20201;-92
2023/12/06 03:34:27;;;;;;;27.93;18.10;;;1.50;99.90;;;;;;4917376;29;20194;-93
2023/12/06 03:36:52;;;;;;;30.57;19.53;;;1.50;99.90;;;;;;4917636;29;20273;-91
2023/12/06 03:39:18;;;;;;;29.30;19.37;;;1.50;99.90;;;;;;4909825;29;20190;-92
2023/12/06 03:41:44;;;;;;;29.07;19.07;;;1.50;99.90;;;;;;4917485;29;20190;-89
2023/12/06 03:44:09;;;;;;;31.80;19.53;;;1.50;99.90;;;;;;4918619;29;20198;-93
2023/12/06 03:46:35;;;;;;;30.40;20.00;;;1.50;99.90;;;;;;4918534;29;20294;-94
2023/12/06 03:49:02;;;;;;;32.80;20.60;;;1.50;99.90;;;;;;4917215;29;20198;-94
2023/12/06 03:51:28;;;;;;;30.87;20.47;;;1.50;99.90;;;;;;4910808;29;20188;-93
2023/12/06 03:53:55;;;;;;;31.23;19.73;;;1.50;99.90;;;;;;4916771;29;20205;-91
2023/12/06 03:56:21;;;;;;;28.37;20.43;;;1.50;99.90;;;;;;4910744;29;20682;-93
2023/12/06 03:58:49;;;;;;;27.13;17.83;;;1.50;99.90;;;;;;4917246;29;20285;-93
2023/12/06 04:01:15;;;;;;;29.63;19.33;;;1.50;99.90;;;;;;4918576;29;20192;-92
2023/12/06 04:03:41;;;;;;;29.97;19.37;;;1.50;99.90;;;;;;4916988;29;20206;-92
2023/12/06 04:06:07;;;;;;;27.10;18.40;;;1.50;99.90;;;;;;4910335;29;20274;-93
2023/12/06 04:08:37;;;;;;;30.20;18.87;;;1.50;99.90;;;;;;4899669;29;20225;-93
2023/12/06 04:11:04;;;;;;;28.97;19.83;;;1.60;99.90;;;;;;4883056;29;20219;-93
2023/12/06 04:13:30;;;;;;;29.07;19.43;;;1.50;99.90;;;;;;4892042;29;20294;-93
2023/12/06 04:15:55;;;;;;;27.50;19.47;;;1.50;99.90;;;;;;4901124;29;20286;-94
2023/12/06 04:18:21;;;;;;;31.20;20.20;;;1.50;99.90;;;;;;4901064;29;20197;-94
2023/12/06 04:20:47;;;;;;;31.50;19.80;;;1.50;99.90;;;;;;4902221;29;20197;-92
2023/12/06 04:23:12;;;;;;;31.27;19.33;;;1.50;99.90;;;;;;4902978;29;20659;-93
2023/12/06 04:25:39;;;;;;;33.03;20.27;;;1.50;99.90;;;;;;4904727;29;20206;-91
2023/12/06 04:28:05;;;;;;;30.83;19.50;;;1.50;99.90;;;;;;4905240;29;20648;-91
2023/12/06 04:30:33;;;;;;;27.90;19.17;;;1.50;99.90;;;;;;4897673;29;20201;-93
2023/12/06 04:32:59;;;;;;;29.90;18.73;;;1.60;99.90;;;;;;4905162;29;20338;-93
2023/12/06 04:35:25;;;;;;;26.93;18.20;;;1.60;99.90;;;;;;4888734;29;20195;-92
2023/12/06 04:37:51;;;;;;;27.37;18.07;;;1.50;99.90;;;;;;4898789;29;20208;-92
2023/12/06 04:40:23;;;;;;;28.90;17.87;;;1.50;99.90;;;;;;4905074;29;20225;-93
2023/12/06 04:42:49;;;;;;;29.20;18.40;;;1.50;99.90;;;;;;4921622;29;20694;-92
2023/12/06 04:45:15;;;;;;;26.43;18.73;;;1.50;99.90;;;;;;4897472;29;20198;-92
2023/12/06 04:47:40;;;;;;;26.70;18.13;;;1.50;99.90;;;;;;4904705;29;20495;-93
2023/12/06 04:50:08;;;;;;;24.00;16.93;;;1.50;99.90;;;;;;4904897;29;20197;-91
2023/12/06 04:52:33;;;;;;;27.07;18.53;;;1.50;99.90;;;;;;4904726;29;20194;-92
2023/12/06 04:55:04;;;;;;;25.57;17.30;;;1.50;99.90;;;;;;4921429;29;20251;-93
2023/12/06 04:57:30;;;;;;;27.13;17.87;;;1.50;99.90;;;;;;4897313;29;20187;-91
2023/12/06 05:00:04;;;;;;;29.47;17.73;;;1.50;99.90;;;;;;4897197;29;20190;-91
2023/12/06 05:02:30;;;;;;;25.80;17.40;;;1.50;99.90;;;;;;4904202;29;20245;-93
2023/12/06 05:04:56;;;;;;;23.10;16.37;;;1.50;99.90;;;;;;4896649;29;20234;-92
2023/12/06 05:07:21;;;;;;;22.53;15.57;;;1.50;99.90;;;;;;4904171;29;20740;-93
2023/12/06 05:09:48;;;;;;;20.73;13.90;;;1.50;99.90;;;;;;4900560;29;20187;-93
2023/12/06 05:12:14;;;;;;;21.67;13.37;;;1.50;99.90;;;;;;4892775;29;20190;-93
2023/12/06 05:14:40;;;;;;;21.33;13.57;;;1.50;99.90;;;;;;4921195;29;20183;-88
2023/12/06 05:17:06;;;;;;;19.20;12.47;;;1.50;99.90;;;;;;4921150;29;20189;-92
2023/12/06 05:19:32;;;;;;;17.83;12.17;;;1.60;99.90;;;;;;4920949;29;20182;-91
2023/12/06 05:21:58;;;;;;;20.27;12.20;;;1.60;99.90;;;;;;4904001;29;20194;-92
2023/12/06 05:24:24;;;;;;;17.63;11.43;;;1.60;99.90;;;;;;4903317;29;20186;-89
2023/12/06 05:26:50;;;;;;;17.87;11.43;;;1.60;99.90;;;;;;4920757;29;20215;-91
2023/12/06 05:29:16;;;;;;;19.63;11.17;;;1.60;99.90;;;;;;4896632;29;20697;-92
2023/12/06 05:31:42;;;;;;;15.73;10.93;;;1.60;99.90;;;;;;4904191;29;20183;-89
2023/12/06 05:34:08;;;;;;;18.43;10.90;;;1.60;99.90;;;;;;4902934;29;20195;-90
2023/12/06 05:36:34;;;;;;;16.67;10.43;;;1.60;99.90;;;;;;4903403;29;20202;-88
2023/12/06 05:39:10;;;;;;;17.33;10.73;;;1.60;99.90;;;;;;4898554;29;20202;-89
2023/12/06 05:41:38;;;;;;;16.93;10.63;;;1.60;99.90;;;;;;4901212;29;20202;-91
2023/12/06 05:44:05;;;;;;;16.30;10.90;;;1.60;99.90;;;;;;4920720;29;20190;-90
2023/12/06 05:46:31;;;;;;;16.80;10.90;;;1.60;99.90;;;;;;4903363;29;20852;-91
2023/12/06 05:48:57;;;;;;;16.43;11.77;;;1.60;99.90;;;;;;4903466;29;20201;-91
2023/12/06 05:51:30;;;;;;;15.00;10.63;;;1.60;99.90;;;;;;4917075;29;20613;-89
2023/12/06 05:53:55;;;;;;;21.30;11.17;;;1.60;99.90;;;;;;4920330;29;20568;-90
2023/12/06 05:56:21;;;;;;;16.80;11.07;;;1.60;99.90;;;;;;4913300;29;20187;-90
2023/12/06 05:58:47;;;;;;;16.40;11.13;;;1.60;99.90;;;;;;4905645;29;20648;-88
2023/12/06 06:01:13;;;;;;;16.80;10.77;;;1.60;99.90;;;;;;4903023;29;20233;-89
2023/12/06 06:03:39;;;;;;;17.70;11.60;;;1.60;99.90;;;;;;4903370;29;20209;-90
2023/12/06 06:06:06;;;;;;;16.97;11.27;;;1.50;99.90;;;;;;4920019;29;20230;-90
2023/12/06 06:08:33;;;;;;;18.07;11.97;;;1.60;99.90;;;;;;4902949;29;20203;-90
2023/12/06 06:10:59;;;;;;;16.67;10.67;;;1.60;99.90;;;;;;4902768;29;20197;-86
2023/12/06 06:13:28;;;;;;;17.57;11.83;;;1.60;99.90;;;;;;4903222;29;20198;-88
2023/12/06 06:15:55;;;;;;;15.83;10.67;;;1.50;99.90;;;;;;4903152;29;20194;-89
2023/12/06 06:18:21;;;;;;;15.80;10.73;;;1.60;99.90;;;;;;4902916;29;20199;-90
2023/12/06 06:20:48;;;;;;;16.37;10.93;;;1.60;99.90;;;;;;4902998;29;20261;-90
2023/12/06 06:23:13;;;;;;;16.50;11.10;;;1.60;99.90;;;;;;4895783;29;20639;-86
2023/12/06 06:25:39;;;;;;;16.80;11.03;;;1.50;99.90;;;;;;4919404;29;20210;-90
2023/12/06 06:28:05;;;;;;;17.83;9.67;;;1.60;99.90;;;;;;4897863;29;20225;-91
2023/12/06 06:30:31;;;;;;;14.60;10.30;;;1.50;99.90;;;;;;4902920;29;20194;-89
2023/12/06 06:32:57;;;;;;;15.10;10.07;;;1.50;99.90;;;;;;4903029;29;20652;-89
2023/12/06 06:35:23;;;;;;;14.77;10.20;;;1.60;99.90;;;;;;4902918;29;20273;-89
2023/12/06 06:37:49;;;;;;;13.93;9.67;;;1.50;99.90;;;;;;4912167;29;20238;-90
2023/12/06 06:40:16;;;;;;;15.63;8.83;;;1.50;99.90;;;;;;4919530;29;20182;-90
2023/12/06 06:42:42;;;;;;;14.73;9.47;;;1.50;99.90;;;;;;4894585;29;20194;-88
2023/12/06 06:45:11;;;;;;;11.77;8.27;;;1.50;99.90;;;;;;4902783;29;20186;-88
2023/12/06 06:47:37;;;;;;;12.57;8.87;;;1.50;99.90;;;;;;4919285;29;20211;-90
2023/12/06 06:50:06;;;;;;;12.73;8.70;;;1.50;99.90;;;;;;4894863;29;20201;-91
2023/12/06 06:52:36;;;;;;;12.43;8.63;;;1.50;99.90;;;;;;4902635;29;20194;-89
2023/12/06 06:55:02;;;;;;;13.90;8.73;;;1.50;99.90;;;;;;4902238;29;20213;-89
2023/12/06 06:57:28;;;;;;;11.53;8.47;;;1.50;99.90;;;;;;4897041;29;20269;-90
2023/12/06 06:59:56;;;;;;;14.70;9.17;;;1.50;99.90;;;;;;4902459;29;20526;-90
2023/12/06 07:02:22;;;;;;;13.13;8.50;;;1.50;99.90;;;;;;4902020;29;20194;-89
2023/12/06 07:04:48;;;;;;;12.43;8.57;;;1.50;99.90;;;;;;4902261;29;20250;-90
2023/12/06 07:07:13;;;;;;;12.10;8.10;;;1.40;99.90;;;;;;4919185;29;20210;-89
2023/12/06 07:09:39;;;;;;;10.90;8.20;;;1.50;99.90;;;;;;4918850;29;20265;-88
2023/12/06 07:12:08;;;;;;;13.93;8.53;;;1.50;99.90;;;;;;4918980;29;20214;-89
2023/12/06 07:14:34;;;;;;;14.60;9.20;;;1.50;99.90;;;;;;4901374;29;20266;-90
2023/12/06 07:16:59;;;;;;;13.03;8.67;;;1.50;99.90;;;;;;4902369;29;20202;-90
2023/12/06 07:19:25;;;;;;;14.43;9.10;;;1.40;99.90;;;;;;4902288;29;20217;-91
2023/12/06 07:21:52;;;;;;;12.33;8.57;;;1.50;99.90;;;;;;4902252;29;20213;-90
2023/12/06 07:24:20;;;;;;;13.27;9.03;;;1.40;99.90;;;;;;4894385;29;20262;-90
2023/12/06 07:26:46;;;;;;;11.97;8.57;;;1.40;99.90;;;;;;4894134;29;20313;-91
2023/12/06 07:29:12;;;;;;;14.37;8.80;;;1.40;99.90;;;;;;4901921;29;20285;-90
2023/12/06 07:31:39;;;;;;;14.20;9.43;;;1.40;99.90;;;;;;4901778;29;20190;-90
2023/12/06 07:34:05;;;;;;;17.10;10.37;;;1.40;99.90;;;;;;4902363;29;20524;-90
2023/12/06 07:36:32;;;;;;;14.27;9.83;;;1.40;99.90;;;;;;4901481;29;20201;-89
2023/12/06 07:38:58;;;;;;;14.33;10.03;;;1.50;99.90;;;;;;4910815;29;20667;-91
2023/12/06 07:41:25;;;;;;;17.67;10.27;;;1.50;99.90;;;;;;4901283;29;20217;-90
2023/12/06 07:43:51;;;;;;;15.57;10.23;;;1.40;99.90;;;;;;4901687;29;20233;-91
2023/12/06 07:46:16;;;;;;;14.47;9.90;;;1.40;99.90;;;;;;4901542;29;20195;-90
2023/12/06 07:48:42;;;;;;;15.13;9.63;;;1.50;99.90;;;;;;4901424;29;20197;-88
2023/12/06 07:51:08;;;;;;;14.50;9.93;;;1.50;99.90;;;;;;4895123;29;20263;-88
2023/12/06 07:53:33;;;;;;;17.63;10.63;;;1.50;99.90;;;;;;4900315;29;20277;-89
2023/12/06 07:55:59;;;;;;;16.90;10.47;;;1.40;99.90;;;;;;4901657;29;20504;-90
2023/12/06 07:58:30;;;;;;;17.33;10.47;;;1.40;99.90;;;;;;4900265;29;20242;-91
2023/12/06 08:00:59;;;;;;;16.37;10.10;;;1.50;99.90;;;;;;4910768;29;20266;-91
2023/12/06 08:03:26;;;;;;;18.90;10.87;;;1.50;99.90;;;;;;4894111;29;20218;-90
2023/12/06 08:05:55;;;;;;;16.50;10.70;;;1.50;99.90;;;;;;4897093;29;20294;-90
2023/12/06 08:08:20;;;;;;;17.87;10.63;;;1.50;99.90;;;;;;4890269;29;20220;-89
2023/12/06 08:10:47;;;;;;;18.93;10.67;;;1.50;99.90;;;;;;4899311;29;20698;-90
2023/12/06 08:13:13;;;;;;;17.17;9.97;;;1.50;99.90;;;;;;4889400;29;20194;-88
2023/12/06 08:15:39;;;;;;;18.97;11.07;;;1.50;99.90;;;;;;4901450;29;20218;-87
2023/12/06 08:18:06;;;;;;;18.10;11.03;;;1.60;99.90;;;;;;4901455;29;20197;-90
2023/12/06 08:20:32;;;;;;;16.57;10.40;;;1.60;99.90;;;;;;4901184;29;20529;-89
2023/12/06 08:22:58;;;;;;;17.10;10.73;;;1.60;99.90;;;;;;4901109;29;20195;-90
2023/12/06 08:25:24;;;;;;;16.47;10.43;;;1.60;99.90;;;;;;4900597;29;20254;-88
2023/12/06 08:27:49;;;;;;;17.20;10.57;;;1.60;99.90;;;;;;4889868;29;20219;-90
2023/12/06 08:30:15;;;;;;;19.93;12.13;;;1.60;99.90;;;;;;4897482;29;20186;-92
2023/12/06 08:32:42;;;;;;;18.97;11.03;;;1.60;99.90;;;;;;4901223;29;20206;-90
2023/12/06 08:35:08;;;;;;;18.97;11.33;;;1.60;99.90;;;;;;4901522;29;20197;-90
2023/12/06 08:37:34;;;;;;;21.83;11.37;;;1.60;99.90;;;;;;4901366;29;20194;-90
2023/12/06 08:39:59;;;;;;;24.33;13.23;;;1.60;99.90;;;;;;4918118;29;20281;-92
2023/12/06 08:42:26;;;;;;;21.40;12.03;;;1.60;99.90;;;;;;4917183;29;20198;-90
2023/12/06 08:44:55;;;;;;;26.63;14.20;;;1.60;99.90;;;;;;4901287;29;20190;-90
2023/12/06 08:47:21;;;;;;;23.73;13.07;;;1.60;99.90;;;;;;4902283;29;20215;-90
2023/12/06 08:49:46;;;;;;;25.73;13.57;;;1.50;99.90;;;;;;4885931;29;20249;-90
2023/12/06 08:52:13;;;;;;;28.87;14.93;;;1.60;99.90;;;;;;4893415;29;20677;-90
2023/12/06 08:54:39;;;;;;;29.47;14.50;;;1.70;99.90;;;;;;4893536;29;20194;-88
2023/12/06 08:57:06;;;;;;;24.87;14.50;;;1.60;99.90;;;;;;4901156;29;20645;-90
2023/12/06 08:59:32;;;;;;;33.87;15.57;;;1.70;99.90;;;;;;4900883;29;20296;-90
2023/12/06 09:02:01;;;;;;;28.60;14.87;;;1.60;99.90;;;;;;4901281;29;20285;-88
2023/12/06 09:04:27;;;;;;;31.73;14.87;;;1.60;99.90;;;;;;4901189;29;20201;-90
2023/12/06 09:06:52;;;;;;;32.73;15.23;;;1.60;99.90;;;;;;4893258;29;20246;-87
2023/12/06 09:09:18;;;;;;;27.67;15.93;;;1.60;99.90;;;;;;4901359;29;20539;-90
2023/12/06 09:11:45;;;;;;;32.63;18.03;;;1.60;99.90;;;;;;4904519;29;20277;-87
2023/12/06 09:14:11;;;;;;;27.67;16.33;;;1.60;99.90;;;;;;4921381;29;20186;-89
2023/12/06 09:16:36;;;;;;;30.73;16.50;;;1.60;99.90;;;;;;4904608;29;20277;-88
2023/12/06 09:19:03;;;;;;;29.20;16.33;;;1.60;99.90;;;;;;4921521;29;20194;-91
2023/12/06 09:21:40;;;;;;;30.00;17.33;;;1.60;99.90;;;;;;4896646;29;20191;-89
2023/12/06 09:24:07;;;;;;;26.50;16.47;;;1.50;99.90;;;;;;4904462;29;20285;-89
2023/12/06 09:26:33;;;;;;;30.67;17.17;;;1.50;99.90;;;;;;4896478;29;20540;-89
2023/12/06 09:29:01;;;;;;;28.70;16.73;;;1.60;99.90;;;;;;4904145;29;20201;-87
2023/12/06 09:31:29;;;;;;;29.70;17.10;;;1.50;99.90;;;;;;4920961;29;20301;-89
2023/12/06 09:33:55;;;;;;;29.53;17.33;;;1.40;99.90;;;;;;4904164;29;20186;-90
2023/12/06 09:36:21;;;;;;;29.07;17.50;;;1.50;99.90;;;;;;4903845;29;20269;-89
2023/12/06 09:38:47;;;;;;;28.63;17.07;;;1.40;99.90;;;;;;4903915;29;20252;-90
2023/12/06 09:41:12;;;;;;;29.17;16.80;;;1.50;99.90;;;;;;4889354;29;20219;-88
2023/12/06 09:43:39;;;;;;;28.77;16.43;;;1.50;99.90;;;;;;4902798;29;20190;-90
2023/12/06 09:46:05;;;;;;;23.30;15.33;;;1.50;99.90;;;;;;4898055;29;20199;-87
2023/12/06 09:48:31;;;;;;;24.30;15.60;;;1.50;99.90;;;;;;4878956;29;20231;-89
2023/12/06 09:50:57;;;;;;;25.93;14.97;;;1.50;99.90;;;;;;4903469;29;20606;-89
2023/12/06 09:53:24;;;;;;;24.97;15.00;;;1.50;99.90;;;;;;4904163;29;20205;-88
2023/12/06 09:55:50;;;;;;;26.00;15.43;;;1.50;99.90;;;;;;4920773;29;20261;-88
2023/12/06 09:58:19;;;;;;;28.67;15.70;;;1.50;99.90;;;;;;4903333;29;20670;-89
2023/12/06 10:00:44;;;;;;;26.70;16.20;;;1.50;99.90;;;;;;4920583;29;20182;-89
2023/12/06 10:03:13;;;;;;;23.03;14.97;;;1.60;99.90;;;;;;4895749;29;20201;-90
2023/12/06 10:05:40;;;;;;;22.07;15.00;;;1.60;99.90;;;;;;4895451;29;20246;-89
2023/12/06 10:08:06;;;;;;;27.00;15.90;;;1.60;99.90;;;;;;4903558;29;20256;-89
2023/12/06 10:10:32;;;;;;;25.93;16.10;;;1.60;99.90;;;;;;4903187;29;20205;-88
2023/12/06 10:12:58;;;;;;;24.47;15.13;;;1.60;99.90;;;;;;4902878;29;20611;-88
2023/12/06 10:15:25;;;;;;;24.17;15.77;;;1.60;99.90;;;;;;4903417;29;20630;-89
2023/12/06 10:17:51;;;;;;;24.90;15.73;;;1.60;99.90;;;;;;4908211;29;20196;-90
2023/12/06 10:20:19;;;;;;;25.97;17.30;;;1.60;99.90;;;;;;4891561;29;20199;-89
2023/12/06 10:22:47;;;;;;;25.83;16.57;;;1.60;99.90;;;;;;4892205;29;20195;-89
2023/12/06 10:25:13;;;;;;;26.57;15.57;;;1.60;99.90;;;;;;4892184;29;20225;-88
2023/12/06 10:27:39;;;;;;;26.90;16.83;;;1.60;99.90;;;;;;4881459;29;20259;-89
2023/12/06 10:30:05;;;;;;;27.67;17.57;;;1.60;99.90;;;;;;4873347;29;20196;-90
2023/12/06 10:32:33;;;;;;;22.73;15.97;;;1.60;99.90;;;;;;4874863;29;20223;-88
2023/12/06 10:35:00;;;;;;;26.30;16.63;;;1.60;99.90;;;;;;4897419;29;20195;-89
2023/12/06 10:37:27;;;;;;;24.03;15.67;;;1.60;99.90;;;;;;4911069;29;20209;-89
2023/12/06 10:40:09;;;;;;;27.33;16.83;;;1.60;99.90;;;;;;4888563;29;20187;-87
2023/12/06 10:42:40;;;;;;;28.70;17.37;;;1.60;99.90;;;;;;4894680;29;20682;-88
2023/12/06 10:45:07;;;;;;;26.20;16.33;;;1.50;99.90;;;;;;4902627;29;20198;-89
2023/12/06 10:47:34;;;;;;;29.67;16.77;;;1.50;99.90;;;;;;4911575;29;20218;-89
2023/12/06 10:50:01;;;;;;;43.60;17.50;;;1.50;99.90;;;;;;4884427;29;20195;-89
2023/12/06 10:52:30;;;;;;;26.63;16.60;;;1.50;99.90;;;;;;4882700;29;20278;-89
2023/12/06 10:54:58;;;;;;;23.27;14.87;;;1.60;99.90;;;;;;4895075;29;20195;-89
2023/12/06 10:57:25;;;;;;;28.50;16.10;;;1.60;99.90;;;;;;4893512;29;20218;-89
2023/12/06 10:59:52;;;;;;;25.73;16.23;;;1.50;99.90;;;;;;4883583;29;20195;-87
2023/12/06 11:02:19;;;;;;;26.30;16.43;;;1.60;99.90;;;;;;4891367;29;20274;-89
2023/12/06 11:04:57;;;;;;;29.80;16.67;;;1.60;99.90;;;;;;4890922;29;20259;-88
2023/12/06 11:07:52;;;;;;;26.57;16.63;;;1.70;99.90;;;;;;4899587;29;20218;-88
2023/12/06 11:10:39;;;;;;;26.50;16.97;;;1.70;99.90;;;;;;4883753;29;20200;-89
2023/12/06 11:13:56;;;;;;;27.57;15.50;;;1.60;99.90;;;;;;4891393;29;20198;-89
2023/12/06 11:16:34;;;;;;;23.73;15.03;;;1.60;99.90;;;;;;4860154;29;20205;-89
2023/12/06 11:19:01;;;;;;;23.03;15.37;;;1.70;99.90;;;;;;4910972;29;20329;-89
2023/12/06 11:21:28;;;;;;;23.40;15.43;;;1.70;99.90;;;;;;4901892;29;20221;-90
2023/12/06 11:23:56;;;;;;;22.63;15.43;;;1.70;99.90;;;;;;4914550;29;20203;-89
2023/12/06 11:26:22;;;;;;;25.67;15.27;;;1.70;99.90;;;;;;4902482;29;20188;-89
2023/12/06 11:28:49;;;;;;;22.70;14.87;;;1.70;99.90;;;;;;4911298;29;20193;-88
2023/12/06 11:31:17;;;;;;;24.23;15.40;;;1.70;99.90;;;;;;4911456;29;20186;-89
2023/12/06 11:33:55;;;;;;;25.17;15.20;;;1.70;99.90;;;;;;4871836;29;20202;-88
2023/12/06 11:36:24;;;;;;;24.37;15.37;;;1.70;99.90;;;;;;4895917;29;20190;-89
2023/12/06 11:38:50;;;;;;;25.40;15.27;;;1.70;99.90;;;;;;4886189;29;20252;-89
2023/12/06 11:41:17;;;;;;;24.13;15.73;;;1.70;99.90;;;;;;4879157;29;20570;-89
2023/12/06 11:43:51;;;;;;;29.00;15.03;;;1.80;99.90;;;;;;4891887;29;20251;-86
2023/12/06 11:46:20;;;;;;;20.90;14.37;;;1.80;99.90;;;;;;4907551;29;20653;-87
2023/12/06 11:48:47;;;;;;;24.10;15.33;;;1.80;99.90;;;;;;4886758;29;20285;-89
2023/12/06 11:51:22;;;;;;;25.93;15.57;;;1.80;99.90;;;;;;4894094;29;20191;-88
2023/12/06 11:53:53;;;;;;;41.40;16.27;;;1.90;99.90;;;;;;4883388;29;20201;-88
2023/12/06 11:56:23;;;;;;;27.60;15.87;;;1.80;99.90;;;;;;4890873;29;20187;-89
2023/12/06 11:58:50;;;;;;;25.67;14.97;;;1.90;99.90;;;;;;4882616;29;20190;-89
2023/12/06 12:01:17;;;;;;;25.90;15.57;;;1.90;99.90;;;;;;4882569;29;20516;-88
2023/12/06 12:03:48;;;;;;;31.97;16.10;;;1.80;99.90;;;;;;4907733;29;20183;-87
2023/12/06 12:06:15;;;;;;;26.47;15.03;;;1.80;99.90;;;;;;4898648;29;20299;-89
2023/12/06 12:08:42;;;;;;;26.07;16.47;;;1.80;99.90;;;;;;4910460;29;20474;-89
2023/12/06 12:11:09;;;;;;;27.50;15.83;;;1.70;99.90;;;;;;4894005;29;20193;-87
2023/12/06 12:13:42;;;;;;;26.00;15.63;;;1.70;99.90;;;;;;4876285;29;20623;-89
2023/12/06 12:16:10;;;;;;;27.10;14.73;;;1.80;99.90;;;;;;4913750;29;20198;-89
2023/12/06 12:18:36;;;;;;;28.43;16.23;;;1.70;99.90;;;;;;4891650;29;20269;-88
2023/12/06 12:21:11;;;;;;;29.73;15.70;;;1.70;99.90;;;;;;4877479;29;20196;-89
2023/12/06 12:23:39;;;;;;;32.67;16.63;;;1.80;99.90;;;;;;4897549;29;20221;-89
2023/12/06 12:26:13;;;;;;;31.20;15.70;;;1.70;99.90;;;;;;4907227;29;20620;-90
2023/12/06 12:28:39;;;;;;;36.80;16.23;;;1.70;99.90;;;;;;4897723;29;20237;-89
2023/12/06 12:31:07;;;;;;;28.70;16.03;;;1.70;99.90;;;;;;4875067;29;20271;-86
2023/12/06 12:33:34;;;;;;;30.00;16.83;;;1.70;99.90;;;;;;4888635;29;20644;-89
2023/12/06 12:36:01;;;;;;;30.37;16.53;;;1.60;99.90;;;;;;4893744;29;20179;-87
2023/12/06 12:38:27;;;;;;;24.63;16.93;;;1.60;99.90;;;;;;4899409;29;20186;-88